Das ist die Wetter- und Hausseite der Bittkau's aus Magdeburg Ottersleben


Hier werden aktuelle Daten aus der privaten Wetterstation und

andere lokale Wettervorhersagen bereitgestellt




Thunder radar more information blitzortung!


Rain radar more information rain snow radar



Es ist keine erhöhte Aufmerksamkeit aufgrund des Wetters notwendig.    Es gibt keine Warnungen.

METAR-Meldungen aus der Umgebung

   
EDDP - Leipzig
Aktualisierung: 14.11.2019 5:50
Klar  
Klar  
   Wind: Osten 16.7 km/h
Wind: Osten 16.7 km/h
Temperatur: 3°C
Gefühlt: -1°C
Taupunkt: 1°C
Luftfeuchte: 87%
Luftdruck: 1008 hPa
Sichtbarkeit: More than 10 km
Bewölkung: Klar
EDDP 141650Z 09009KT CAVOK 03/01 Q1008 NOSIG
EDDC - Dresden
Aktualisierung: 14.11.2019 5:50
Klar  
Klar  
   Wind: OSO 7.4 km/h
Wind: OSO 7.4 km/h
Temperatur: 3°C
Gefühlt: 1°C
Taupunkt: 1°C
Luftfeuchte: 87%
Luftdruck: 1008 hPa
Sichtbarkeit: More than 10 km
Bewölkung: Klar
EDDC 141650Z 11004KT CAVOK 03/01 Q1008 NOSIG
EDDE - Erfurt
Aktualisierung: 14.11.2019 5:50
Klar  
Klar  
   Wind: ONO 9.3 km/h
Wind: ONO 9.3 km/h
Temperatur: 3°C
Gefühlt: 1°C
Taupunkt: 0°C
Luftfeuchte: 81%
Luftdruck: 1005 hPa
Sichtbarkeit: More than 10 km
Bewölkung: Klar
EDDE 141650Z 07005KT CAVOK 03/00 Q1005 NOSIG
EDVE - Braunschweig
Aktualisierung: 14.11.2019 5:50
Klar  
Klar  
   Wind: Osten 13 km/h
Wind: Osten 13 km/h
Temperatur: 5°C
Gefühlt: 2°C
Taupunkt: 1°C
Luftfeuchte: 76%
Luftdruck: 1008 hPa
Sichtbarkeit: More than 10 km
Bewölkung: Klar
EDVE 141650Z 09007KT CAVOK 05/01 Q1008
EDDV - Hannover
Aktualisierung: 14.11.2019 5:50
Klar  
Klar  
   Wind: Osten 20.4 km/h
Wind: Osten 20.4 km/h
Temperatur: 6°C
Gefühlt: 2°C
Taupunkt: 2°C
Luftfeuchte: 76%
Luftdruck: 1007 hPa
Sichtbarkeit: More than 10 km
Bewölkung: Klar
EDDV 141650Z 09011KT CAVOK 06/02 Q1007 NOSIG
EDDT - Berlin
Aktualisierung: 14.11.2019 5:50
Klar  
Klar  
   Wind: Osten 16.7 km/h
Wind: Osten 16.7 km/h
Temperatur: 6°C
Gefühlt: 3°C
Taupunkt: 3°C
Luftfeuchte: 81%
Luftdruck: 1010 hPa
Sichtbarkeit: More than 10 km
Bewölkung: Klar
EDDT 141650Z 09009KT 070V130 CAVOK 06/03 Q1010 NOSIG
EDDE - Schwerin
Aktualisierung: 14.11.2019 5:50
Klar  
Klar  
   Wind: ONO 9.3 km/h
Wind: ONO 9.3 km/h
Temperatur: 3°C
Gefühlt: 1°C
Taupunkt: 0°C
Luftfeuchte: 81%
Luftdruck: 1005 hPa
Sichtbarkeit: More than 10 km
Bewölkung: Klar
EDDE 141650Z 07005KT CAVOK 03/00 Q1005 NOSIG
EDHI - Hamburg
Aktualisierung: 14.11.2019 5:50
Klar  
Klar  
   Wind: Osten 14.8 km/h
Wind: Osten 14.8 km/h
Temperatur: 6°C
Gefühlt: 3°C
Taupunkt: 3°C
Luftfeuchte: 81%
Luftdruck: 1008 hPa
Sichtbarkeit: More than 10 km
Bewölkung: Klar
EDHI 141650Z 10008KT 050V140 CAVOK 06/03 Q1008
EDDK - Köln-Bonn
Aktualisierung: 14.11.2019 5:50
Klar  
Klar  
   Wind: variiert 1.9 km/h
Wind: variiert 1.9 km/h
Temperatur: 7°C
Taupunkt: 1°C
Luftfeuchte: 66%
Luftdruck: 1003 hPa
Sichtbarkeit: More than 10 km
Bewölkung: Klar
EDDK 141650Z VRB01KT CAVOK 07/01 Q1003 NOSIG
EDHL - Lübeck-Blankensee
Aktualisierung: 14.11.2019 5:50
Klar  
Klar  
   Wind: OSO 5.6 km/h
Wind: OSO 5.6 km/h
Temperatur: 5°C
Gefühlt: 4°C
Taupunkt: 2°C
Luftfeuchte: 81%
Luftdruck: 1010 hPa
Sichtbarkeit: More than 10 km
Bewölkung: Klar
EDHL 141650Z 11003KT 080V140 CAVOK 05/02 Q1010
  

Script entwickelt von  Saratoga-weather.org Angepasst für das Template von  Weerstation Leuven

Sie finden die Wetterinfo auch auf:

Wetternetzwerk Deutschland

European Weather Network

Weather Underground

Regionalwetter-SA

wetter.com

wxforum.de

Genutzte Hardware, Software und WEB Anbieter:

Wetterstation
Ventus W928-Ultimate

Wetterprogramm
Meteohub

WetterComputer
RaspberryPI

Anbieter
WEB Provider One.com

Ventus W928-Ultimate

Meteohub

RaspberryPI

WEB Provider One.com